createdAt,value
2022-09-15T00:02:52.482Z,0.65
2022-09-15T00:05:56.368Z,0.70
2022-09-15T00:09:00.171Z,0.73
2022-09-15T00:12:04.960Z,0.80
2022-09-15T00:15:09.256Z,0.85
2022-09-15T00:18:12.941Z,0.93
2022-09-15T00:21:17.368Z,0.93
2022-09-15T00:24:20.931Z,0.98
2022-09-15T00:27:25.512Z,0.70
2022-09-15T00:30:28.910Z,1.02
2022-09-15T00:33:32.200Z,0.70
2022-09-15T00:36:35.476Z,1.00
2022-09-15T00:39:38.735Z,0.95
2022-09-15T00:42:43.529Z,0.90
2022-09-15T00:45:46.965Z,0.80
2022-09-15T00:48:53.322Z,0.80
2022-09-15T00:51:59.100Z,1.00
2022-09-15T00:55:03.908Z,0.82
2022-09-15T00:58:10.040Z,1.83
2022-09-15T01:01:14.587Z,0.57
2022-09-15T01:04:18.011Z,0.80
2022-09-15T01:07:24.079Z,0.70
2022-09-15T01:10:28.268Z,1.17
2022-09-15T01:13:32.962Z,0.77
2022-09-15T01:16:42.373Z,1.10
2022-09-15T01:20:02.766Z,1.10
2022-09-15T01:23:35.858Z,1.00
2022-09-15T01:26:56.125Z,0.65
2022-09-15T01:30:06.282Z,1.13
2022-09-15T01:33:20.298Z,0.70
2022-09-15T01:36:25.684Z,0.85
2022-09-15T01:39:30.478Z,0.70
2022-09-15T01:42:34.788Z,0.90
2022-09-15T01:45:40.905Z,1.10
2022-09-15T01:48:45.146Z,0.82
2022-09-15T01:51:49.982Z,1.00
2022-09-15T01:54:59.077Z,0.65
2022-09-15T01:58:02.400Z,1.05
2022-09-15T02:01:09.612Z,0.68
2022-09-15T02:04:15.627Z,0.80
2022-09-15T02:07:23.862Z,0.98
2022-09-15T02:10:29.290Z,1.55
2022-09-15T02:13:39.199Z,0.90
2022-09-15T02:16:45.535Z,0.98
2022-09-15T02:19:52.053Z,1.27
2022-09-15T02:22:57.378Z,1.15
2022-09-15T02:26:05.021Z,1.30
2022-09-15T02:29:10.608Z,0.90
2022-09-15T02:32:17.183Z,1.00
2022-09-15T02:35:20.604Z,1.00
2022-09-15T02:38:23.846Z,1.08
2022-09-15T02:41:27.181Z,0.80
2022-09-15T02:44:31.359Z,1.00
2022-09-15T02:47:35.988Z,0.70
2022-09-15T02:50:39.625Z,0.85
2022-09-15T02:53:42.999Z,0.80
2022-09-15T02:56:47.087Z,0.93
2022-09-15T03:00:07.908Z,1.50
2022-09-15T03:03:12.707Z,1.10
2022-09-15T03:06:21.037Z,1.33
2022-09-15T03:09:24.321Z,0.80
2022-09-15T03:12:27.704Z,1.08
2022-09-15T03:15:30.937Z,1.23
2022-09-15T03:18:35.523Z,0.90
2022-09-15T03:21:38.773Z,0.90
2022-09-15T03:24:42.491Z,0.87
2022-09-15T03:27:45.747Z,0.75
2022-09-15T03:30:49.145Z,1.00
2022-09-15T03:33:56.019Z,0.77
2022-09-15T03:36:59.693Z,0.90
2022-09-15T03:40:03.699Z,0.70
2022-09-15T03:43:07.074Z,0.80
2022-09-15T03:46:12.452Z,0.85
2022-09-15T03:49:17.083Z,0.75
2022-09-15T03:52:20.364Z,0.73
2022-09-15T03:55:23.571Z,0.73
2022-09-15T03:58:30.123Z,0.80
2022-09-15T04:01:34.293Z,0.80
2022-09-15T04:04:38.970Z,0.45
2022-09-15T04:07:42.794Z,0.60
2022-09-15T04:10:46.219Z,1.05
2022-09-15T04:13:49.500Z,0.75
2022-09-15T04:16:52.889Z,0.90
2022-09-15T04:19:57.564Z,0.70
2022-09-15T04:23:01.225Z,0.85
2022-09-15T04:26:06.153Z,0.88
2022-09-15T04:29:13.402Z,0.80
2022-09-15T04:32:16.670Z,0.77
2022-09-15T04:35:21.960Z,0.80
2022-09-15T04:38:25.282Z,0.60
2022-09-15T04:41:29.186Z,0.60
2022-09-15T04:44:32.474Z,0.88
2022-09-15T04:47:35.737Z,1.13
2022-09-15T04:50:40.780Z,1.08
2022-09-15T04:53:44.258Z,0.60
2022-09-15T04:56:49.140Z,0.65
2022-09-15T04:59:52.389Z,0.45
2022-09-15T05:02:55.688Z,0.60
2022-09-15T05:06:00.342Z,0.52
2022-09-15T05:09:09.050Z,0.52
2022-09-15T05:12:14.143Z,0.60
2022-09-15T05:15:17.402Z,0.68
2022-09-15T05:18:20.654Z,0.40
2022-09-15T05:21:25.827Z,0.40
2022-09-15T05:24:29.112Z,0.47
2022-09-15T05:27:33.708Z,0.50
2022-09-15T05:30:40.520Z,0.52
2022-09-15T05:33:46.100Z,0.70
2022-09-15T05:36:50.709Z,0.40
2022-09-15T05:39:54.165Z,0.47
2022-09-15T05:42:57.641Z,0.67
2022-09-15T05:46:00.877Z,0.90
2022-09-15T05:49:04.156Z,0.70
2022-09-15T05:52:08.788Z,0.40
2022-09-15T05:55:12.017Z,0.73
2022-09-15T05:58:15.401Z,0.45
2022-09-15T06:01:20.249Z,0.60
2022-09-15T06:04:24.032Z,0.60
2022-09-15T06:07:28.609Z,0.45
2022-09-15T06:10:31.832Z,0.50
2022-09-15T06:13:35.316Z,0.40
2022-09-15T06:16:39.078Z,0.60
2022-09-15T06:19:42.379Z,0.30
2022-09-15T06:22:47.169Z,0.40
2022-09-15T06:25:50.409Z,0.60
2022-09-15T06:28:54.409Z,0.60
2022-09-15T06:32:02.632Z,0.98
2022-09-15T06:35:07.131Z,0.50
2022-09-15T06:38:11.735Z,0.38
2022-09-15T06:41:15.297Z,0.60
2022-09-15T06:44:18.684Z,0.85
2022-09-15T06:47:21.949Z,0.60
2022-09-15T06:50:25.557Z,0.60
2022-09-15T06:53:31.421Z,0.50
2022-09-15T06:56:38.043Z,0.52
2022-09-15T06:59:42.569Z,1.42
2022-09-15T07:02:45.917Z,0.50
2022-09-15T07:05:49.225Z,0.70
2022-09-15T07:08:53.908Z,0.90
2022-09-15T07:11:57.161Z,0.57
2022-09-15T07:15:00.411Z,0.87
2022-09-15T07:18:03.673Z,0.60
2022-09-15T07:21:08.057Z,0.60
2022-09-15T07:24:14.101Z,0.70
2022-09-15T07:27:17.334Z,0.95
2022-09-15T07:30:20.576Z,0.60
2022-09-15T07:33:23.824Z,0.65
2022-09-15T07:36:27.132Z,0.73
2022-09-15T07:39:33.145Z,0.60
2022-09-15T07:42:36.469Z,0.70
2022-09-15T07:45:39.803Z,0.80
2022-09-15T07:48:45.406Z,0.75
2022-09-15T07:51:48.673Z,0.50
2022-09-15T07:54:53.257Z,0.73
2022-09-15T07:57:59.745Z,0.57
2022-09-15T08:01:03.745Z,0.70
2022-09-15T08:04:07.005Z,0.50
2022-09-15T08:07:10.236Z,0.70
2022-09-15T08:10:14.849Z,0.80
2022-09-15T08:13:18.128Z,0.60
2022-09-15T08:16:23.756Z,0.63
2022-09-15T08:19:28.114Z,0.70
2022-09-15T08:22:31.364Z,0.63
2022-09-15T08:25:35.981Z,0.80
2022-09-15T08:28:39.582Z,0.50
2022-09-15T08:31:44.814Z,0.50
2022-09-15T08:34:48.154Z,0.32
2022-09-15T08:37:51.411Z,0.52
2022-09-15T08:40:59.262Z,0.90
2022-09-15T08:44:05.613Z,0.70
2022-09-15T08:47:12.250Z,0.90
2022-09-15T08:50:21.631Z,0.60
2022-09-15T08:53:26.736Z,0.60
2022-09-15T08:56:32.095Z,1.00
2022-09-15T08:59:36.927Z,0.95
2022-09-15T09:02:48.492Z,1.00
2022-09-15T09:05:56.049Z,1.25
2022-09-15T09:09:05.155Z,0.60
2022-09-15T09:12:20.514Z,0.55
2022-09-15T09:15:28.363Z,0.50
2022-09-15T09:18:46.884Z,0.75
2022-09-15T09:21:53.631Z,1.02
2022-09-15T09:24:58.458Z,0.77
2022-09-15T09:28:05.106Z,0.70
2022-09-15T09:31:09.276Z,1.00
2022-09-15T09:34:17.853Z,0.50
2022-09-15T09:37:21.120Z,0.43
2022-09-15T09:40:24.502Z,0.80
2022-09-15T09:43:30.405Z,0.60
2022-09-15T09:46:34.593Z,0.60
2022-09-15T09:49:40.502Z,0.60
2022-09-15T09:52:43.852Z,0.70
2022-09-15T09:55:47.419Z,0.60
2022-09-15T09:58:52.047Z,0.43
2022-09-15T10:02:06.468Z,0.55
2022-09-15T10:05:19.904Z,0.50
2022-09-15T10:08:23.233Z,0.30
2022-09-15T10:11:41.348Z,0.50
2022-09-15T10:14:52.590Z,0.50
2022-09-15T10:17:56.396Z,0.45
2022-09-15T10:20:59.971Z,0.28
2022-09-15T10:24:25.265Z,0.50
2022-09-15T10:27:30.125Z,0.50
2022-09-15T10:30:34.732Z,0.60
2022-09-15T10:33:38.583Z,0.55
2022-09-15T10:36:41.900Z,0.47
2022-09-15T10:39:51.466Z,0.45
2022-09-15T10:42:56.980Z,0.40
2022-09-15T10:46:04.635Z,0.70
2022-09-15T10:49:14.279Z,0.68
2022-09-15T10:52:22.865Z,0.43
2022-09-15T10:55:51.546Z,0.40
2022-09-15T10:59:00.934Z,0.50
2022-09-15T11:02:11.406Z,0.50
2022-09-15T11:05:27.962Z,0.60
2022-09-15T11:08:39.627Z,0.63
2022-09-15T11:11:50.539Z,0.60
2022-09-15T11:15:00.238Z,0.82
2022-09-15T11:18:15.968Z,0.80
2022-09-15T11:21:22.063Z,0.60
2022-09-15T11:24:28.100Z,0.88
2022-09-15T11:27:33.116Z,0.55
2022-09-15T11:30:39.427Z,0.68
2022-09-15T11:33:46.638Z,0.80
2022-09-15T11:36:52.824Z,0.52
2022-09-15T11:39:59.718Z,0.82
2022-09-15T11:43:05.012Z,0.57
2022-09-15T11:46:11.625Z,0.47
2022-09-15T11:49:18.023Z,0.65
2022-09-15T11:52:29.153Z,0.80
2022-09-15T11:55:35.049Z,0.35
2022-09-15T11:58:44.753Z,0.38
2022-09-15T12:01:50.905Z,0.50
2022-09-15T12:05:12.477Z,0.80
2022-09-15T12:08:18.881Z,0.65
2022-09-15T12:11:23.950Z,0.60
2022-09-15T12:14:30.384Z,0.70
2022-09-15T12:17:35.591Z,0.50
2022-09-15T12:20:43.686Z,0.68
2022-09-15T12:23:48.765Z,0.47
2022-09-15T12:26:52.068Z,0.60
2022-09-15T12:29:56.223Z,0.50
2022-09-15T12:32:59.491Z,0.50
2022-09-15T12:36:17.584Z,0.52
2022-09-15T12:39:26.746Z,0.40
2022-09-15T12:42:31.485Z,0.60
2022-09-15T12:45:36.313Z,0.38
2022-09-15T12:48:47.336Z,0.30
2022-09-15T12:51:51.294Z,0.70
2022-09-15T12:54:57.525Z,0.60
2022-09-15T12:58:02.000Z,0.50
2022-09-15T13:01:23.860Z,0.45
2022-09-15T13:04:51.276Z,0.77
2022-09-15T13:07:56.679Z,0.45
2022-09-15T13:11:04.397Z,0.60
2022-09-15T13:14:18.446Z,0.57
2022-09-15T13:17:23.141Z,0.98
2022-09-15T13:20:32.050Z,0.43
2022-09-15T13:23:37.656Z,0.40
2022-09-15T13:26:44.646Z,0.52
2022-09-15T13:29:49.317Z,0.60
2022-09-15T13:32:54.794Z,0.50
2022-09-15T13:36:05.437Z,0.35
2022-09-15T13:39:28.193Z,0.50
2022-09-15T13:42:37.065Z,0.40
2022-09-15T13:45:47.876Z,0.40
2022-09-15T13:48:57.912Z,0.60
2022-09-15T13:52:04.742Z,0.28
2022-09-15T13:55:11.762Z,0.52
2022-09-15T14:01:42.479Z,1.13
2022-09-15T14:04:51.810Z,0.32
2022-09-15T14:08:00.632Z,0.30
2022-09-15T14:11:08.252Z,0.30
2022-09-15T14:14:31.486Z,0.52
2022-09-15T14:17:35.553Z,0.40
2022-09-15T14:20:38.942Z,0.60
2022-09-15T14:23:46.957Z,0.47
2022-09-15T14:26:50.429Z,0.25
2022-09-15T14:29:57.645Z,0.50
2022-09-15T14:33:01.825Z,0.75
2022-09-15T14:36:13.390Z,0.32
2022-09-15T14:39:21.468Z,0.50
2022-09-15T14:42:29.663Z,0.55
2022-09-15T14:49:10.480Z,1.33
2022-09-15T14:52:24.498Z,0.50
2022-09-15T14:55:31.086Z,0.60
2022-09-15T14:58:36.782Z,0.30
2022-09-15T15:01:42.862Z,0.30
2022-09-15T15:04:49.526Z,0.30
2022-09-15T15:07:55.307Z,0.20
2022-09-15T15:10:59.073Z,0.45
2022-09-15T15:14:02.379Z,0.50
2022-09-15T15:17:08.103Z,0.50
2022-09-15T15:20:16.238Z,0.52
2022-09-15T15:23:21.438Z,0.40
2022-09-15T15:26:35.423Z,0.60
2022-09-15T15:29:40.694Z,0.80
2022-09-15T15:32:45.358Z,0.70
2022-09-15T15:35:49.510Z,0.73
2022-09-15T15:38:54.516Z,0.63
2022-09-15T15:42:02.735Z,0.57
2022-09-15T15:45:21.826Z,0.32
2022-09-15T15:48:27.700Z,0.82
2022-09-15T15:51:32.509Z,0.70
2022-09-15T15:54:35.987Z,0.88
2022-09-15T15:57:40.016Z,0.50
2022-09-15T16:00:45.454Z,0.55
2022-09-15T16:03:50.602Z,0.70
2022-09-15T16:06:54.070Z,0.40
2022-09-15T16:09:57.436Z,0.40
2022-09-15T16:13:00.714Z,0.60
2022-09-15T16:16:04.244Z,0.38
2022-09-15T16:19:09.687Z,0.50
2022-09-15T16:22:17.322Z,0.60
2022-09-15T16:25:23.235Z,0.60
2022-09-15T16:28:26.580Z,0.70
2022-09-15T16:31:29.826Z,0.70
2022-09-15T16:34:34.418Z,0.73
2022-09-15T16:37:37.899Z,0.47
2022-09-15T16:40:40.922Z,0.82
2022-09-15T16:43:44.558Z,0.65
2022-09-15T16:46:47.552Z,0.70
2022-09-15T16:49:52.615Z,0.93
2022-09-15T16:52:55.723Z,1.13
2022-09-15T16:55:58.940Z,1.00
2022-09-15T16:59:02.220Z,0.85
2022-09-15T17:02:07.420Z,1.17
2022-09-15T17:05:16.864Z,1.20
2022-09-15T17:08:20.896Z,1.00
2022-09-15T17:11:25.418Z,1.30
2022-09-15T17:14:28.882Z,0.98
2022-09-15T17:17:31.771Z,1.65
2022-09-15T17:20:39.161Z,1.45
2022-09-15T17:23:45.953Z,1.30
2022-09-15T17:26:48.818Z,1.55
2022-09-15T17:29:51.646Z,1.37
2022-09-15T17:33:02.574Z,1.40
2022-09-15T17:36:07.115Z,1.20
2022-09-15T17:39:10.003Z,1.70
2022-09-15T17:42:12.837Z,1.45
2022-09-15T17:45:19.092Z,1.67
2022-09-15T17:48:23.201Z,1.87
2022-09-15T17:51:27.703Z,1.47
2022-09-15T17:54:31.272Z,1.53
2022-09-15T17:57:34.406Z,1.33
2022-09-15T18:00:39.359Z,1.92
2022-09-15T18:03:44.555Z,1.90
2022-09-15T18:06:48.754Z,2.00
2022-09-15T18:09:51.601Z,1.53
2022-09-15T18:12:56.134Z,1.50
2022-09-15T18:16:04.304Z,1.33
2022-09-15T18:19:07.190Z,1.50
2022-09-15T18:22:14.405Z,1.27
2022-09-15T18:25:20.538Z,1.30
2022-09-15T18:28:23.425Z,1.57
2022-09-15T18:31:26.629Z,1.50
2022-09-15T18:34:29.910Z,1.60
2022-09-15T18:37:34.097Z,1.70
2022-09-15T18:40:37.361Z,1.60
2022-09-15T18:43:40.216Z,1.30
2022-09-15T18:46:43.141Z,2.13
2022-09-15T18:49:46.076Z,1.20
2022-09-15T18:52:50.914Z,1.40
2022-09-15T18:55:53.783Z,1.73
2022-09-15T18:58:56.889Z,1.70
2022-09-15T19:01:59.822Z,1.73
2022-09-15T19:05:02.748Z,1.80
2022-09-15T19:08:08.388Z,1.57
2022-09-15T19:11:11.283Z,1.83
2022-09-15T19:14:14.189Z,2.23
2022-09-15T19:17:17.253Z,1.47
2022-09-15T19:20:20.370Z,1.77
2022-09-15T19:23:24.712Z,1.67
2022-09-15T19:26:29.416Z,1.50
2022-09-15T19:29:34.675Z,1.80
2022-09-15T19:32:38.633Z,1.57
2022-09-15T19:35:42.786Z,1.97
2022-09-15T19:38:46.983Z,1.40
2022-09-15T19:41:49.892Z,1.67
2022-09-15T19:44:52.844Z,2.37
2022-09-15T19:47:55.709Z,2.10
2022-09-15T19:50:58.866Z,1.80
2022-09-15T19:54:03.641Z,1.80
2022-09-15T19:57:06.523Z,2.23
2022-09-15T20:00:11.024Z,2.17
2022-09-15T20:03:13.902Z,2.53
2022-09-15T20:06:16.878Z,2.13
2022-09-15T20:09:21.156Z,2.43
2022-09-15T20:12:25.059Z,2.13
2022-09-15T20:15:29.314Z,2.43
2022-09-15T20:18:32.583Z,2.63
2022-09-15T20:21:52.786Z,2.10
2022-09-15T20:24:57.369Z,2.20
2022-09-15T20:28:00.558Z,2.43
2022-09-15T20:31:05.947Z,2.30
2022-09-15T20:34:08.972Z,2.10
2022-09-15T20:37:11.831Z,2.50
2022-09-15T20:40:16.758Z,2.23
2022-09-15T20:43:19.638Z,1.60
2022-09-15T20:46:23.916Z,2.10
2022-09-15T20:49:26.757Z,1.90
2022-09-15T20:52:34.728Z,2.03
2022-09-15T20:55:42.167Z,1.67
2022-09-15T20:58:45.502Z,3.23
2022-09-15T21:01:48.687Z,1.87
2022-09-15T21:04:51.504Z,2.80
2022-09-15T21:07:54.332Z,2.70
2022-09-15T21:10:59.008Z,2.30
2022-09-15T21:14:03.219Z,2.83
2022-09-15T21:17:06.941Z,2.20
2022-09-15T21:20:10.567Z,2.47
2022-09-15T21:23:13.390Z,2.50
2022-09-15T21:26:19.750Z,2.53
2022-09-15T21:29:23.303Z,2.70
2022-09-15T21:32:26.134Z,1.60
2022-09-15T21:35:28.971Z,2.23
2022-09-15T21:38:32.064Z,1.90
2022-09-15T21:41:36.239Z,2.30
2022-09-15T21:44:39.128Z,2.40
2022-09-15T21:47:41.965Z,2.50
2022-09-15T21:50:50.261Z,2.40
2022-09-15T21:53:54.000Z,3.03
2022-09-15T21:56:58.455Z,2.37
2022-09-15T22:00:01.261Z,3.23
2022-09-15T22:03:04.160Z,2.93
2022-09-15T22:06:07.473Z,2.53
2022-09-15T22:09:13.869Z,2.67
2022-09-15T22:12:18.052Z,2.37
2022-09-15T22:15:20.964Z,2.63
2022-09-15T22:18:23.800Z,2.50
2022-09-15T22:21:28.019Z,2.90
2022-09-15T22:24:31.036Z,2.43
2022-09-15T22:27:35.220Z,2.67
2022-09-15T22:30:38.277Z,3.10
2022-09-15T22:33:42.323Z,2.23
2022-09-15T22:36:45.460Z,2.83
2022-09-15T22:39:59.307Z,2.40
2022-09-15T22:43:03.744Z,2.60
2022-09-15T22:46:07.125Z,2.53
2022-09-15T22:49:10.044Z,2.70
2022-09-15T22:52:13.243Z,2.90
2022-09-15T22:55:16.499Z,2.30
2022-09-15T22:58:21.063Z,3.37
2022-09-15T23:01:25.286Z,2.43
2022-09-15T23:04:28.320Z,2.50
2022-09-15T23:07:31.154Z,2.63
2022-09-15T23:10:33.993Z,2.70
2022-09-15T23:13:38.822Z,3.00
2022-09-15T23:16:42.677Z,2.40
2022-09-15T23:19:45.568Z,2.67
2022-09-15T23:22:48.435Z,2.83
2022-09-15T23:25:51.263Z,2.60
2022-09-15T23:28:55.854Z,2.57
2022-09-15T23:31:58.824Z,2.57
2022-09-15T23:35:01.705Z,2.70
2022-09-15T23:38:04.573Z,2.63
2022-09-15T23:41:07.892Z,2.70
2022-09-15T23:44:12.267Z,2.83
2022-09-15T23:47:15.108Z,2.40
2022-09-15T23:50:18.064Z,2.00
2022-09-15T23:53:20.901Z,2.30
2022-09-15T23:56:23.786Z,2.50
2022-09-15T23:59:27.996Z,2.47
